createdAt,value
2022-09-23T00:00:04.820Z,101663.16
2022-09-23T00:03:07.311Z,101651.59
2022-09-23T00:06:12.280Z,101651.81
2022-09-23T00:09:16.125Z,101652.75
2022-09-23T00:12:19.006Z,101649.72
2022-09-23T00:15:22.194Z,101657.78
2022-09-23T00:18:24.679Z,101651.59
2022-09-23T00:21:27.401Z,101650.88
2022-09-23T00:24:32.326Z,101646.47
2022-09-23T00:27:35.133Z,101647.66
2022-09-23T00:30:37.613Z,101636.38
2022-09-23T00:33:41.342Z,101643.41
2022-09-23T00:36:44.447Z,101633.53
2022-09-23T00:39:48.475Z,101640.44
2022-09-23T00:42:51.985Z,101629.09
2022-09-23T00:45:54.843Z,101632.06
2022-09-23T00:49:01.070Z,101629.19
2022-09-23T00:52:10.498Z,101631.47
2022-09-23T00:55:18.553Z,101630.38
2022-09-23T00:58:24.471Z,101620.63
2022-09-23T01:01:27.145Z,101609.31
2022-09-23T01:04:30.670Z,101617.88
2022-09-23T01:07:33.179Z,101609.03
2022-09-23T01:10:47.417Z,101607.25
2022-09-23T01:14:00.378Z,101601.88
2022-09-23T01:17:09.899Z,101594.94
2022-09-23T01:20:49.485Z,101602.78
2022-09-23T01:24:19.205Z,101593.56
2022-09-23T01:27:41.981Z,101596.44
2022-09-23T01:30:51.832Z,101593.34
2022-09-23T01:34:02.099Z,101587.25
2022-09-23T01:37:11.942Z,101581.22
2022-09-23T01:40:21.287Z,101575.22
2022-09-23T01:43:28.222Z,101572.50
2022-09-23T01:46:36.549Z,101573.44
2022-09-23T01:49:44.369Z,101582.44
2022-09-23T01:52:48.347Z,101577.59
2022-09-23T01:55:57.179Z,101567.63
2022-09-23T01:59:06.555Z,101570.72
2022-09-23T02:02:15.144Z,101572.38
2022-09-23T02:05:23.365Z,101561.94
2022-09-23T02:08:30.731Z,101558.28
2022-09-23T02:11:36.936Z,101554.25
2022-09-23T02:14:44.881Z,101548.81
2022-09-23T02:17:52.839Z,101552.75
2022-09-23T02:21:00.305Z,101549.16
2022-09-23T02:24:09.938Z,101541.88
2022-09-23T02:27:21.378Z,101539.44
2022-09-23T02:30:29.246Z,101530.81
2022-09-23T02:33:37.867Z,101538.38
2022-09-23T02:36:46.986Z,101529.81
2022-09-23T02:39:58.992Z,101534.94
2022-09-23T02:43:07.211Z,101534.06
2022-09-23T02:46:10.241Z,101528.53
2022-09-23T02:49:19.922Z,101521.56
2022-09-23T02:52:23.907Z,101524.41
2022-09-23T02:55:30.260Z,101519.91
2022-09-23T02:58:33.420Z,101516.09
2022-09-23T03:01:46.621Z,101513.34
2022-09-23T03:04:59.456Z,101499.78
2022-09-23T03:08:18.883Z,101511.06
2022-09-23T03:11:21.963Z,101504.97
2022-09-23T03:14:35.656Z,101497.81
2022-09-23T03:17:44.877Z,101499.66
2022-09-23T03:20:53.196Z,101502.91
2022-09-23T03:24:00.383Z,101497.81
2022-09-23T03:27:06.029Z,101495.09
2022-09-23T03:30:10.490Z,101489.66
2022-09-23T03:33:16.642Z,101491.13
2022-09-23T03:36:43.878Z,101488.91
2022-09-23T03:39:52.565Z,101484.97
2022-09-23T03:42:57.059Z,101485.16
2022-09-23T03:46:01.323Z,101485.59
2022-09-23T03:49:11.061Z,101474.88
2022-09-23T03:52:15.078Z,101475.63
2022-09-23T03:55:19.168Z,101467.19
2022-09-23T03:58:21.650Z,101470.41
2022-09-23T04:01:24.265Z,101466.25
2022-09-23T04:04:27.721Z,101469.94
2022-09-23T04:07:31.974Z,101466.81
2022-09-23T04:10:34.444Z,101460.13
2022-09-23T04:13:36.937Z,101456.56
2022-09-23T04:16:39.521Z,101460.13
2022-09-23T04:19:42.306Z,101452.47
2022-09-23T04:22:46.146Z,101451.63
2022-09-23T04:25:49.535Z,101448.97
2022-09-23T04:28:52.043Z,101444.94
2022-09-23T04:31:55.076Z,101436.88
2022-09-23T04:34:57.621Z,101439.53
2022-09-23T04:38:01.467Z,101437.78
2022-09-23T04:41:03.945Z,101438.63
2022-09-23T04:44:06.587Z,101438.09
2022-09-23T04:47:09.127Z,101436.34
2022-09-23T04:50:11.649Z,101439.03
2022-09-23T04:53:17.002Z,101434.59
2022-09-23T04:56:21.670Z,101434.53
2022-09-23T04:59:24.304Z,101428.28
2022-09-23T05:02:28.168Z,101435.31
2022-09-23T05:05:31.853Z,101429.69
2022-09-23T05:08:35.941Z,101434.84
2022-09-23T05:11:38.432Z,101434.66
2022-09-23T05:14:40.922Z,101423.28
2022-09-23T05:17:43.782Z,101431.59
2022-09-23T05:20:46.286Z,101439.09
2022-09-23T05:23:52.314Z,101437.22
2022-09-23T05:26:55.761Z,101432.19
2022-09-23T05:29:58.470Z,101431.03
2022-09-23T05:33:02.679Z,101427.38
2022-09-23T05:36:05.971Z,101432.72
2022-09-23T05:39:09.879Z,101427.22
2022-09-23T05:42:12.518Z,101422.06
2022-09-23T05:45:15.083Z,101420.13
2022-09-23T05:48:17.570Z,101417.00
2022-09-23T05:51:21.970Z,101420.25
2022-09-23T05:54:25.872Z,101419.41
2022-09-23T05:57:28.347Z,101424.31
2022-09-23T06:00:30.820Z,101418.03
2022-09-23T06:03:33.371Z,101420.31
2022-09-23T06:06:38.243Z,101417.56
2022-09-23T06:09:42.707Z,101417.31
2022-09-23T06:12:45.184Z,101418.59
2022-09-23T06:15:47.709Z,101425.09
2022-09-23T06:18:50.322Z,101421.81
2022-09-23T06:21:52.803Z,101419.03
2022-09-23T06:24:56.628Z,101420.41
2022-09-23T06:27:59.169Z,101410.81
2022-09-23T06:31:03.915Z,101421.66
2022-09-23T06:34:11.543Z,101419.69
2022-09-23T06:37:20.095Z,101416.19
2022-09-23T06:40:24.821Z,101418.59
2022-09-23T06:43:27.772Z,101416.88
2022-09-23T06:46:31.831Z,101417.44
2022-09-23T06:49:34.660Z,101417.69
2022-09-23T06:52:37.198Z,101414.72
2022-09-23T06:55:41.247Z,101411.94
2022-09-23T06:58:43.760Z,101411.88
2022-09-23T07:01:47.576Z,101410.69
2022-09-23T07:04:51.177Z,101413.53
2022-09-23T07:07:54.563Z,101411.81
2022-09-23T07:11:00.561Z,101407.31
2022-09-23T07:14:03.124Z,101412.47
2022-09-23T07:17:05.816Z,101413.50
2022-09-23T07:20:08.993Z,101412.56
2022-09-23T07:23:11.446Z,101415.94
2022-09-23T07:26:16.606Z,101416.50
2022-09-23T07:29:19.090Z,101418.84
2022-09-23T07:32:23.616Z,101423.03
2022-09-23T07:35:28.049Z,101417.22
2022-09-23T07:38:31.355Z,101421.03
2022-09-23T07:41:35.605Z,101420.09
2022-09-23T07:44:38.102Z,101418.06
2022-09-23T07:47:40.793Z,101426.06
2022-09-23T07:50:43.281Z,101422.25
2022-09-23T07:53:48.424Z,101421.25
2022-09-23T07:56:52.269Z,101418.16
2022-09-23T07:59:54.766Z,101427.66
2022-09-23T08:02:57.298Z,101418.31
2022-09-23T08:06:08.138Z,101425.00
2022-09-23T08:09:11.089Z,101435.75
2022-09-23T08:12:17.385Z,101428.47
2022-09-23T08:15:19.923Z,101425.78
2022-09-23T08:18:22.391Z,101427.97
2022-09-23T08:21:24.877Z,101425.50
2022-09-23T08:24:30.173Z,101421.50
2022-09-23T08:27:33.986Z,101424.91
2022-09-23T08:30:36.731Z,101421.56
2022-09-23T08:33:39.934Z,101423.72
2022-09-23T08:36:42.552Z,101417.44
2022-09-23T08:39:45.040Z,101416.13
2022-09-23T08:42:49.651Z,101417.66
2022-09-23T08:45:53.513Z,101419.72
2022-09-23T08:48:56.704Z,101409.97
2022-09-23T08:52:03.068Z,101405.53
2022-09-23T08:55:07.081Z,101404.66
2022-09-23T08:58:28.676Z,101395.03
2022-09-23T09:01:40.317Z,101403.16
2022-09-23T09:04:45.410Z,101392.59
2022-09-23T09:07:47.903Z,101390.19
2022-09-23T09:10:54.400Z,101393.91
2022-09-23T09:14:04.891Z,101391.25
2022-09-23T09:17:10.734Z,101396.53
2022-09-23T09:20:23.165Z,101396.59
2022-09-23T09:23:33.446Z,101390.09
2022-09-23T09:26:36.580Z,101379.25
2022-09-23T09:29:43.996Z,101384.34
2022-09-23T09:32:49.764Z,101377.56
2022-09-23T09:36:07.589Z,101376.06
2022-09-23T09:39:13.376Z,101372.31
2022-09-23T09:42:21.154Z,101369.81
2022-09-23T09:45:57.536Z,101364.97
2022-09-23T09:49:06.119Z,101364.94
2022-09-23T09:52:14.393Z,101374.06
2022-09-23T09:55:26.196Z,101360.47
2022-09-23T09:58:31.064Z,101358.47
2022-09-23T10:01:36.154Z,101356.63
2022-09-23T10:04:39.348Z,101354.97
2022-09-23T10:07:41.902Z,101352.16
2022-09-23T10:10:54.515Z,101345.25
2022-09-23T10:14:12.274Z,101347.44
2022-09-23T10:17:21.315Z,101337.75
2022-09-23T10:20:23.849Z,101332.56
2022-09-23T10:23:29.310Z,101336.16
2022-09-23T10:26:34.492Z,101333.97
2022-09-23T10:29:39.774Z,101335.19
2022-09-23T10:32:46.384Z,101329.75
2022-09-23T10:35:56.598Z,101323.09
2022-09-23T10:39:15.531Z,101311.94
2022-09-23T10:42:40.279Z,101322.94
2022-09-23T10:46:06.653Z,101318.41
2022-09-23T10:49:40.439Z,101304.97
2022-09-23T10:52:55.233Z,101314.13
2022-09-23T10:56:11.061Z,101314.00
2022-09-23T10:59:34.122Z,101311.75
2022-09-23T11:02:56.889Z,101311.53
2022-09-23T11:06:13.092Z,101313.22
2022-09-23T11:09:28.876Z,101307.97
2022-09-23T11:12:41.615Z,101306.34
2022-09-23T11:15:55.709Z,101302.44
2022-09-23T11:19:15.130Z,101294.94
2022-09-23T11:22:37.019Z,101288.31
2022-09-23T11:25:50.544Z,101286.06
2022-09-23T11:29:15.960Z,101286.34
2022-09-23T11:32:39.527Z,101272.72
2022-09-23T11:35:47.607Z,101270.56
2022-09-23T11:38:53.175Z,101266.16
2022-09-23T11:42:00.226Z,101262.22
2022-09-23T11:45:09.558Z,101263.06
2022-09-23T11:48:17.149Z,101261.50
2022-09-23T11:51:25.648Z,101256.19
2022-09-23T11:54:35.757Z,101252.41
2022-09-23T11:57:49.042Z,101243.78
2022-09-23T12:01:01.217Z,101242.13
2022-09-23T12:04:19.200Z,101238.59
2022-09-23T12:07:28.536Z,101235.63
2022-09-23T12:10:41.943Z,101231.53
2022-09-23T12:13:51.442Z,101235.31
2022-09-23T12:17:21.321Z,101223.72
2022-09-23T12:20:41.390Z,101223.28
2022-09-23T12:23:59.211Z,101216.09
2022-09-23T12:27:08.014Z,101218.09
2022-09-23T12:30:17.515Z,101213.81
2022-09-23T12:33:24.698Z,101221.59
2022-09-23T12:36:33.756Z,101210.47
2022-09-23T12:39:38.687Z,101211.75
2022-09-23T12:42:46.219Z,101208.88
2022-09-23T12:45:49.226Z,101212.19
2022-09-23T12:49:04.308Z,101205.66
2022-09-23T12:52:25.034Z,101202.63
2022-09-23T12:55:51.517Z,101196.72
2022-09-23T12:59:11.151Z,101200.69
2022-09-23T13:02:28.262Z,101193.41
2022-09-23T13:05:48.639Z,101190.25
2022-09-23T13:08:51.321Z,101186.59
2022-09-23T13:11:58.851Z,101193.03
2022-09-23T13:15:06.468Z,101179.16
2022-09-23T13:18:45.874Z,101183.94
2022-09-23T13:22:08.825Z,101181.00
2022-09-23T13:25:20.563Z,101174.63
2022-09-23T13:28:33.597Z,101174.50
2022-09-23T13:31:37.891Z,101168.28
2022-09-23T13:34:44.147Z,101168.50
2022-09-23T13:37:48.674Z,101163.66
2022-09-23T13:40:51.286Z,101161.28
2022-09-23T13:43:58.633Z,101157.28
2022-09-23T13:47:03.183Z,101151.25
2022-09-23T13:50:06.736Z,101156.56
2022-09-23T13:53:12.370Z,101155.41
2022-09-23T13:56:16.619Z,101155.81
2022-09-23T13:59:25.840Z,101148.41
2022-09-23T14:02:29.746Z,101147.81
2022-09-23T14:05:36.261Z,101140.47
2022-09-23T14:08:40.669Z,101141.00
2022-09-23T14:11:43.181Z,101131.97
2022-09-23T14:14:46.440Z,101133.50
2022-09-23T14:17:54.127Z,101135.19
2022-09-23T14:20:56.788Z,101137.75
2022-09-23T14:24:13.089Z,101131.53
2022-09-23T14:27:18.556Z,101131.53
2022-09-23T14:30:21.074Z,101127.88
2022-09-23T14:33:27.600Z,101122.75
2022-09-23T14:36:54.364Z,101119.31
2022-09-23T14:39:57.919Z,101127.06
2022-09-23T14:43:04.462Z,101122.97
2022-09-23T14:46:07.066Z,101121.25
2022-09-23T14:49:17.297Z,101117.38
2022-09-23T14:52:19.801Z,101119.31
2022-09-23T14:55:22.753Z,101115.53
2022-09-23T14:58:29.419Z,101107.81
2022-09-23T15:01:38.597Z,101109.41
2022-09-23T15:04:42.600Z,101109.94
2022-09-23T15:07:49.523Z,101104.41
2022-09-23T15:10:52.127Z,101103.88
2022-09-23T15:13:54.630Z,101099.91
2022-09-23T15:16:57.146Z,101094.53
2022-09-23T15:20:04.388Z,101098.94
2022-09-23T15:23:07.155Z,101092.59
2022-09-23T15:26:13.526Z,101083.97
2022-09-23T15:29:16.002Z,101101.47
2022-09-23T15:32:19.546Z,101097.19
2022-09-23T15:35:26.464Z,101093.75
2022-09-23T15:38:28.999Z,101098.38
2022-09-23T15:41:33.029Z,101088.69
2022-09-23T15:44:36.245Z,101094.72
2022-09-23T15:47:38.755Z,101097.13
2022-09-23T15:50:45.440Z,101087.19
2022-09-23T15:53:47.941Z,101093.47
2022-09-23T15:56:50.464Z,101083.59
2022-09-23T15:59:58.126Z,101092.03
2022-09-23T16:03:01.024Z,101092.06
2022-09-23T16:06:06.127Z,101092.31
2022-09-23T16:09:08.944Z,101089.28
2022-09-23T16:12:12.899Z,101087.34
2022-09-23T16:15:18.956Z,101073.84
2022-09-23T16:18:21.445Z,101078.91
2022-09-23T16:21:27.300Z,101075.91
2022-09-23T16:24:30.821Z,101074.81
2022-09-23T16:27:33.993Z,101080.00
2022-09-23T16:30:37.654Z,101072.25
2022-09-23T16:33:40.139Z,101071.00
2022-09-23T16:36:44.447Z,101071.19
2022-09-23T16:39:49.345Z,101068.50
2022-09-23T16:42:54.811Z,101072.75
2022-09-23T16:45:57.706Z,101066.19
2022-09-23T16:49:01.015Z,101070.88
2022-09-23T16:52:05.359Z,101069.28
2022-09-23T16:55:10.289Z,101069.66
2022-09-23T16:58:12.815Z,101071.78
2022-09-23T17:01:42.448Z,101073.91
2022-09-23T17:04:45.155Z,101076.22
2022-09-23T17:07:48.973Z,101072.28
2022-09-23T17:10:58.541Z,101074.78
2022-09-23T17:14:01.189Z,101069.06
2022-09-23T17:17:03.701Z,101071.34
2022-09-23T17:20:07.363Z,101068.66
2022-09-23T17:23:11.237Z,101067.72
2022-09-23T17:26:15.031Z,101068.09
2022-09-23T17:29:17.517Z,101063.81
2022-09-23T17:32:20.855Z,101077.41
2022-09-23T17:35:23.370Z,101068.03
2022-09-23T17:38:29.327Z,101065.75
2022-09-23T17:41:32.111Z,101066.28
2022-09-23T17:44:35.276Z,101062.53
2022-09-23T17:47:41.413Z,101068.44
2022-09-23T17:50:44.396Z,101063.13
2022-09-23T17:53:49.665Z,101063.59
2022-09-23T17:56:52.151Z,101069.72
2022-09-23T17:59:55.986Z,101072.13
2022-09-23T18:02:58.467Z,101072.13
2022-09-23T18:06:09.699Z,101065.31
2022-09-23T18:09:13.971Z,101067.47
2022-09-23T18:12:16.821Z,101058.59
2022-09-23T18:15:20.194Z,101074.88
2022-09-23T18:18:22.785Z,101069.88
2022-09-23T18:21:27.177Z,101070.50
2022-09-23T18:24:33.395Z,101072.31
2022-09-23T18:27:36.209Z,101068.88
2022-09-23T18:30:40.068Z,101069.47
2022-09-23T18:33:42.771Z,101071.28
2022-09-23T18:36:46.008Z,101075.25
2022-09-23T18:39:49.896Z,101066.28
2022-09-23T18:42:52.365Z,101077.50
2022-09-23T18:45:59.438Z,101075.06
2022-09-23T18:49:19.516Z,101072.50
2022-09-23T18:52:22.008Z,101069.91
2022-09-23T18:55:26.067Z,101060.91
2022-09-23T18:58:28.564Z,101066.81
2022-09-23T19:01:31.271Z,101067.31
2022-09-23T19:04:33.863Z,101070.00
2022-09-23T19:07:36.355Z,101071.09
2022-09-23T19:10:40.165Z,101069.78
2022-09-23T19:13:42.964Z,101073.34
2022-09-23T19:16:45.447Z,101078.53
2022-09-23T19:19:47.907Z,101072.13
2022-09-23T19:22:50.366Z,101078.25
2022-09-23T19:25:54.545Z,101077.41
2022-09-23T19:28:58.356Z,101068.69
2022-09-23T19:32:00.929Z,101067.56
2022-09-23T19:35:03.438Z,101066.78
2022-09-23T19:38:06.762Z,101059.22
2022-09-23T19:41:11.164Z,101066.44
2022-09-23T19:44:14.042Z,101064.72
2022-09-23T19:47:17.400Z,101065.22
2022-09-23T19:50:21.669Z,101067.31
2022-09-23T19:53:28.036Z,101066.28
2022-09-23T19:56:33.073Z,101058.53
2022-09-23T19:59:35.568Z,101047.28
2022-09-23T20:02:38.058Z,101045.06
2022-09-23T20:05:40.794Z,101048.75
2022-09-23T20:08:44.070Z,101045.16
2022-09-23T20:11:47.909Z,101041.63
2022-09-23T20:14:51.634Z,101039.06
2022-09-23T20:17:54.525Z,101035.72
2022-09-23T20:20:56.997Z,101032.28
2022-09-23T20:24:00.025Z,101031.41
2022-09-23T20:27:09.530Z,101018.47
2022-09-23T20:30:12.423Z,101031.94
2022-09-23T20:33:15.135Z,101023.31
2022-09-23T20:36:17.787Z,101026.59
2022-09-23T20:39:20.266Z,101022.38
2022-09-23T20:42:24.233Z,101021.97
2022-09-23T20:45:26.737Z,101020.59
2022-09-23T20:48:30.449Z,101017.97
2022-09-23T20:51:33.782Z,101011.38
2022-09-23T20:54:38.790Z,101018.06
2022-09-23T20:57:44.232Z,101006.88
2022-09-23T21:00:47.001Z,101009.97
2022-09-23T21:03:52.390Z,100998.41
2022-09-23T21:06:57.373Z,100998.66
2022-09-23T21:10:01.805Z,101000.41
2022-09-23T21:13:06.965Z,100995.59
2022-09-23T21:16:12.033Z,100995.59
2022-09-23T21:19:14.657Z,100998.00
2022-09-23T21:22:17.753Z,100995.75
2022-09-23T21:25:29.112Z,100991.97
2022-09-23T21:28:35.430Z,100987.97
2022-09-23T21:31:38.724Z,100994.63
2022-09-23T21:34:41.285Z,100986.81
2022-09-23T21:37:43.756Z,100986.97
2022-09-23T21:40:58.499Z,100991.44
2022-09-23T21:44:04.366Z,100992.06
2022-09-23T21:47:07.088Z,100989.03
2022-09-23T21:50:10.228Z,100986.19
2022-09-23T21:53:12.717Z,101002.81
2022-09-23T21:56:20.654Z,100990.31
2022-09-23T21:59:24.995Z,100989.03
2022-09-23T22:02:27.647Z,100989.03
2022-09-23T22:05:30.174Z,100991.09
2022-09-23T22:08:36.705Z,100989.38
2022-09-23T22:11:58.347Z,100995.22
2022-09-23T22:15:02.187Z,100995.59
2022-09-23T22:18:06.392Z,100998.09
2022-09-23T22:21:08.852Z,100995.22
2022-09-23T22:24:12.880Z,100994.31
2022-09-23T22:27:18.345Z,100989.72
2022-09-23T22:30:39.710Z,100990.91
2022-09-23T22:33:42.187Z,100989.19
2022-09-23T22:36:44.674Z,100989.53
2022-09-23T22:39:47.307Z,100984.03
2022-09-23T22:42:49.825Z,100984.81
2022-09-23T22:45:53.699Z,100984.47
2022-09-23T22:48:56.181Z,100983.34
2022-09-23T22:51:59.351Z,100983.00
2022-09-23T22:55:01.872Z,100984.63
2022-09-23T22:58:27.587Z,100979.63
2022-09-23T23:01:29.990Z,100978.06
2022-09-23T23:04:33.797Z,100976.78
2022-09-23T23:07:36.480Z,100983.84
2022-09-23T23:10:38.971Z,100983.34
2022-09-23T23:13:42.394Z,100977.22
2022-09-23T23:16:46.905Z,100978.44
2022-09-23T23:19:50.503Z,100979.28
2022-09-23T23:22:53.006Z,100973.59
2022-09-23T23:25:55.475Z,100970.25
2022-09-23T23:28:58.705Z,100964.81
2022-09-23T23:32:02.957Z,100962.81
2022-09-23T23:35:06.221Z,100964.72
2022-09-23T23:38:12.434Z,100958.69
2022-09-23T23:41:16.702Z,100958.88
2022-09-23T23:44:19.192Z,100960.06
2022-09-23T23:47:23.289Z,100955.94
2022-09-23T23:50:26.394Z,100963.66
2022-09-23T23:53:32.289Z,100963.09
2022-09-23T23:56:34.799Z,100962.81
2022-09-23T23:59:37.606Z,100961.44
